Swan Lake, South Dakota
Current Conditions -  °F | °C
As of 10:15 AM on Thursday 18 Dec 2014 (Local Time) from KYKN Reporting Station
Overcast Overcast  
Wind Chill: 18°   Ceiling: 1100
Heat Index: 25°   Visibility: 10mi
Dew Point: 21°   Wind: 6mph
Humidity: 86%   Direction: 130°SE
Pressure: 30.24"   Gusts: NA
Location:  43.1951°N, 97.1515°W
Report Text: KYKN 181615Z AUTO 13005KT 10SM OVC011 M04/M06 A3024 RMK AO1
Loading
Personal Weather Stations






























Interactive Weather Map New forecast layout! Learn more

10-Day Weather Forecast

Advertisements
Track Severe Weather on mobile